Time;durP1;ratioP1;P1;durP2;ratioP2;P2;SDS_P1;SDS_P2;PMS_P1;PMS_P2;Temp;Humidity;BMP_temperature;BMP_pressure;BME280_temperature;BME280_humidity;BME280_pressure;Samples;Min_cycle;Max_cycle;Signal;HPM_P1;HPM_P2
2023/07/06 00:02:09;;;;;;;0.00;0.00;;;16.90;99.90;;;;;;5052047;28;20182;-66
2023/07/06 00:04:36;;;;;;;0.00;0.00;;;16.80;99.90;;;;;;5051107;28;20181;-65
2023/07/06 00:07:02;;;;;;;0.00;0.00;;;16.80;99.90;;;;;;5052265;28;20193;-65
2023/07/06 00:09:28;;;;;;;0.00;0.00;;;16.70;99.90;;;;;;5051993;28;20204;-65
2023/07/06 00:11:55;;;;;;;0.00;0.00;;;16.60;99.90;;;;;;5050763;28;20254;-65
2023/07/06 00:14:24;;;;;;;0.00;0.00;;;16.60;99.90;;;;;;5051820;28;20626;-65
2023/07/06 00:17:07;;;;;;;0.00;0.00;;;16.50;99.90;;;;;;5052015;28;20181;-65
2023/07/06 00:19:34;;;;;;;0.00;0.00;;;16.50;99.90;;;;;;5051874;28;20208;-65
2023/07/06 00:22:00;;;;;;;0.00;0.00;;;16.40;99.90;;;;;;5050441;28;20184;-65
2023/07/06 00:24:26;;;;;;;0.00;0.00;;;16.40;99.90;;;;;;5051609;28;20189;-65
2023/07/06 00:26:51;;;;;;;0.00;0.00;;;16.40;99.90;;;;;;5051726;28;20231;-65
2023/07/06 00:29:17;;;;;;;0.00;0.00;;;16.30;99.90;;;;;;5051471;28;20306;-66
2023/07/06 00:31:51;;;;;;;0.00;0.00;;;16.30;99.90;;;;;;5051220;28;20193;-65
2023/07/06 00:34:18;;;;;;;0.00;0.00;;;16.30;99.90;;;;;;5051187;28;20182;-66
2023/07/06 00:36:44;;;;;;;0.00;0.00;;;16.20;99.90;;;;;;5051335;28;20637;-66
2023/07/06 00:39:12;;;;;;;0.00;0.00;;;16.20;99.90;;;;;;5051473;28;20255;-65
2023/07/06 00:41:39;;;;;;;0.00;0.00;;;16.20;99.90;;;;;;5051070;28;20189;-65
2023/07/06 00:44:04;;;;;;;0.00;0.00;;;16.10;99.90;;;;;;5050647;28;20647;-65
2023/07/06 00:46:39;;;;;;;0.00;0.00;;;16.00;99.90;;;;;;5051312;28;20177;-65
2023/07/06 00:49:12;;;;;;;0.00;0.00;;;16.00;99.90;;;;;;5051145;28;20187;-66
2023/07/06 00:51:40;;;;;;;0.00;0.00;;;15.90;99.90;;;;;;5050868;28;20235;-66
2023/07/06 00:54:16;;;;;;;0.00;0.00;;;15.90;99.90;;;;;;5051282;28;20204;-66
2023/07/06 00:56:45;;;;;;;0.00;0.00;;;15.80;99.90;;;;;;5050943;28;20181;-66
2023/07/06 00:59:15;;;;;;;0.00;0.00;;;15.80;99.90;;;;;;5050120;28;20244;-65
2023/07/06 01:01:43;;;;;;;0.00;0.00;;;15.80;99.90;;;;;;5049076;28;20277;-65
2023/07/06 01:04:12;;;;;;;0.00;0.00;;;15.70;99.90;;;;;;5050967;28;20169;-66
2023/07/06 01:06:42;;;;;;;0.00;0.00;;;15.70;99.90;;;;;;5040318;28;20192;-66
2023/07/06 01:09:08;;;;;;;0.00;0.00;;;15.70;99.90;;;;;;5050930;28;20264;-66
2023/07/06 01:11:38;;;;;;;0.00;0.00;;;15.60;99.90;;;;;;5049525;28;20224;-66
2023/07/06 01:14:03;;;;;;;0.00;0.00;;;15.50;99.90;;;;;;5045741;28;20208;-66
2023/07/06 01:16:32;;;;;;;0.00;0.00;;;15.50;99.90;;;;;;5050927;28;20200;-65
2023/07/06 01:19:35;;;;;;;0.00;0.00;;;15.50;99.90;;;;;;5047438;28;20714;-65
2023/07/06 01:22:33;;;;;;;0.00;0.00;;;15.40;99.90;;;;;;5049563;28;20635;-66
2023/07/06 01:25:24;;;;;;;0.00;0.00;;;15.40;99.90;;;;;;5050844;28;20177;-66
2023/07/06 01:28:06;;;;;;;0.00;0.00;;;15.30;99.90;;;;;;5050380;28;20217;-66
2023/07/06 01:30:50;;;;;;;0.00;0.00;;;15.30;99.90;;;;;;5050761;28;20177;-65
2023/07/06 01:33:36;;;;;;;0.00;0.00;;;15.20;99.90;;;;;;5050756;28;20399;-66
2023/07/06 01:36:21;;;;;;;0.00;0.00;;;15.10;99.90;;;;;;5050533;28;20177;-66
2023/07/06 01:38:49;;;;;;;0.00;0.00;;;15.10;99.90;;;;;;5050631;28;20352;-65
2023/07/06 01:41:27;;;;;;;0.00;0.00;;;15.00;99.90;;;;;;5050418;28;20593;-66
2023/07/06 01:43:52;;;;;;;0.00;0.00;;;15.00;99.90;;;;;;5050673;28;20173;-66
2023/07/06 01:46:19;;;;;;;0.00;0.00;;;15.00;99.90;;;;;;5050554;28;20239;-65
2023/07/06 01:48:45;;;;;;;0.00;0.00;;;14.90;99.90;;;;;;5050805;28;20184;-66
2023/07/06 01:51:11;;;;;;;0.00;0.00;;;14.90;99.90;;;;;;5050715;28;20640;-66
2023/07/06 01:53:49;;;;;;;0.00;0.00;;;14.70;99.90;;;;;;5050755;28;20173;-66
2023/07/06 01:56:23;;;;;;;0.00;0.00;;;14.70;99.90;;;;;;5050495;28;20181;-65
2023/07/06 01:59:03;;;;;;;0.00;0.00;;;14.60;99.90;;;;;;5050653;28;20184;-65
2023/07/06 02:01:37;;;;;;;0.00;0.00;;;14.50;99.90;;;;;;5050784;28;20545;-65
2023/07/06 02:04:07;;;;;;;0.00;0.00;;;14.40;99.90;;;;;;5050691;28;20245;-65
2023/07/06 02:06:35;;;;;;;0.00;0.00;;;14.20;99.90;;;;;;5050568;28;20532;-65
2023/07/06 02:09:02;;;;;;;0.00;0.00;;;14.10;99.90;;;;;;5049396;28;20264;-65
2023/07/06 02:11:28;;;;;;;0.00;0.00;;;14.10;99.90;;;;;;5050590;28;20177;-65
2023/07/06 02:13:53;;;;;;;0.00;0.00;;;14.10;99.90;;;;;;5050033;28;20514;-65
2023/07/06 02:16:19;;;;;;;0.00;0.00;;;14.10;99.90;;;;;;5048498;28;20243;-65
2023/07/06 02:18:44;;;;;;;0.00;0.00;;;14.10;99.90;;;;;;5050081;28;20173;-65
2023/07/06 02:21:10;;;;;;;0.00;0.00;;;14.10;99.90;;;;;;5050261;28;20235;-65
2023/07/06 02:23:36;;;;;;;0.00;0.00;;;14.10;99.90;;;;;;5049807;28;20169;-65
2023/07/06 02:26:05;;;;;;;0.00;0.00;;;14.10;99.90;;;;;;5049779;28;20591;-65
2023/07/06 02:28:30;;;;;;;0.20;0.20;;;14.10;99.90;;;;;;5049590;28;20720;-65
2023/07/06 02:30:57;;;;;;;0.00;0.00;;;14.00;99.90;;;;;;5050348;28;20216;-65
2023/07/06 02:33:30;;;;;;;0.00;0.00;;;14.00;99.90;;;;;;5050150;28;20185;-65
2023/07/06 02:35:56;;;;;;;0.00;0.00;;;14.00;99.90;;;;;;5050176;28;20184;-65
2023/07/06 02:38:22;;;;;;;0.00;0.00;;;14.00;99.90;;;;;;5050088;28;20205;-65
2023/07/06 02:40:49;;;;;;;0.00;0.00;;;14.00;99.90;;;;;;5050229;28;20252;-65
2023/07/06 02:43:15;;;;;;;0.00;0.00;;;14.10;99.90;;;;;;5050131;28;20261;-65
2023/07/06 02:45:40;;;;;;;0.00;0.00;;;14.10;99.90;;;;;;5051293;28;20264;-65
2023/07/06 02:48:06;;;;;;;0.00;0.00;;;14.10;99.90;;;;;;5054022;28;20227;-65
2023/07/06 02:50:32;;;;;;;0.00;0.00;;;14.20;99.90;;;;;;5053833;28;20714;-65
2023/07/06 02:52:58;;;;;;;0.00;0.00;;;14.20;99.90;;;;;;5053948;28;20181;-66
2023/07/06 02:55:27;;;;;;;0.00;0.00;;;14.20;99.90;;;;;;5053476;28;20272;-66
2023/07/06 02:57:52;;;;;;;0.00;0.00;;;14.20;99.90;;;;;;5053888;28;20204;-66
2023/07/06 03:00:18;;;;;;;0.00;0.00;;;14.20;99.90;;;;;;5053127;28;20249;-66
2023/07/06 03:02:44;;;;;;;0.00;0.00;;;14.20;99.90;;;;;;5053345;28;20181;-66
2023/07/06 03:05:11;;;;;;;0.00;0.00;;;14.20;99.90;;;;;;5053674;28;20663;-66
2023/07/06 03:07:37;;;;;;;0.00;0.00;;;14.20;99.90;;;;;;5053766;28;20166;-66
2023/07/06 03:10:04;;;;;;;0.00;0.00;;;14.10;99.90;;;;;;5051030;28;20268;-66
2023/07/06 03:12:36;;;;;;;0.00;0.00;;;14.10;99.90;;;;;;5053463;28;20288;-66
2023/07/06 03:15:07;;;;;;;0.00;0.00;;;14.10;99.90;;;;;;5053359;28;20590;-66
2023/07/06 03:17:32;;;;;;;0.00;0.00;;;14.10;99.90;;;;;;5053184;28;20177;-66
2023/07/06 03:19:58;;;;;;;0.00;0.00;;;14.00;99.90;;;;;;5053287;28;20722;-66
2023/07/06 03:22:23;;;;;;;0.00;0.00;;;14.00;99.90;;;;;;5052745;28;20181;-66
2023/07/06 03:24:49;;;;;;;0.00;0.00;;;14.00;99.90;;;;;;5053115;28;20192;-65
2023/07/06 03:27:14;;;;;;;0.00;0.00;;;14.00;99.90;;;;;;5052783;28;20177;-66
2023/07/06 03:29:40;;;;;;;0.00;0.00;;;14.00;99.90;;;;;;5051500;28;20259;-66
2023/07/06 03:32:06;;;;;;;0.00;0.00;;;13.90;99.90;;;;;;5052540;28;20268;-65
2023/07/06 03:34:33;;;;;;;0.00;0.00;;;13.90;99.90;;;;;;5052626;28;20287;-66
2023/07/06 03:36:59;;;;;;;0.00;0.00;;;13.90;99.90;;;;;;5052571;28;20252;-66
2023/07/06 03:39:25;;;;;;;0.05;0.05;;;13.90;99.90;;;;;;5052525;28;20212;-66
2023/07/06 03:41:51;;;;;;;0.00;0.00;;;13.90;99.90;;;;;;5052463;28;20173;-66
2023/07/06 03:44:17;;;;;;;0.00;0.00;;;13.90;99.90;;;;;;5052214;28;20182;-65
2023/07/06 03:46:43;;;;;;;0.00;0.00;;;13.90;99.90;;;;;;5050743;28;20699;-67
2023/07/06 03:49:10;;;;;;;0.00;0.00;;;13.90;99.90;;;;;;5051012;28;20185;-67
2023/07/06 03:51:36;;;;;;;0.00;0.00;;;13.90;99.90;;;;;;5052686;28;20707;-66
2023/07/06 03:54:06;;;;;;;0.00;0.00;;;13.90;99.90;;;;;;5050323;28;20684;-65
2023/07/06 03:56:35;;;;;;;0.00;0.00;;;13.90;99.90;;;;;;5051803;28;20177;-65
2023/07/06 03:59:02;;;;;;;0.00;0.00;;;13.90;99.90;;;;;;5051852;28;20166;-65
2023/07/06 04:01:29;;;;;;;0.20;0.10;;;13.90;99.90;;;;;;5051566;28;20181;-66
2023/07/06 04:03:55;;;;;;;0.10;0.10;;;13.90;99.90;;;;;;5051782;28;20667;-65
2023/07/06 04:06:23;;;;;;;0.00;0.00;;;13.90;99.90;;;;;;5051558;28;20186;-65
2023/07/06 04:08:48;;;;;;;0.00;0.00;;;13.90;99.90;;;;;;5051165;28;20192;-67
2023/07/06 04:11:14;;;;;;;0.00;0.00;;;14.00;99.90;;;;;;5050145;28;20189;-64
2023/07/06 04:13:40;;;;;;;0.00;0.00;;;14.00;99.90;;;;;;5051205;28;20185;-64
2023/07/06 04:16:14;;;;;;;0.00;0.00;;;14.00;99.90;;;;;;5051247;28;20276;-66
2023/07/06 04:18:39;;;;;;;0.00;0.00;;;14.10;99.90;;;;;;5050249;28;20351;-62
2023/07/06 04:21:04;;;;;;;0.00;0.00;;;14.20;99.90;;;;;;5050443;28;20328;-64
2023/07/06 04:23:30;;;;;;;0.00;0.00;;;14.30;99.90;;;;;;5050723;28;20256;-66
2023/07/06 04:25:56;;;;;;;0.00;0.00;;;14.40;99.90;;;;;;5051368;28;20182;-65
2023/07/06 04:28:22;;;;;;;0.00;0.00;;;14.60;99.90;;;;;;5051162;28;20743;-66
2023/07/06 04:30:50;;;;;;;0.10;0.10;;;14.90;99.90;;;;;;5051392;28;20169;-65
2023/07/06 04:33:19;;;;;;;0.00;0.00;;;15.20;99.90;;;;;;5051497;28;20181;-65
2023/07/06 04:35:51;;;;;;;0.00;0.00;;;15.40;99.90;;;;;;5051288;28;20630;-65
2023/07/06 04:38:17;;;;;;;0.00;0.00;;;15.70;99.90;;;;;;5051634;28;20220;-65
2023/07/06 04:40:43;;;;;;;0.00;0.00;;;16.10;99.90;;;;;;5051433;28;20639;-65
2023/07/06 04:43:10;;;;;;;0.00;0.00;;;16.40;99.90;;;;;;5051225;28;20173;-65
2023/07/06 04:45:36;;;;;;;0.00;0.00;;;16.70;99.90;;;;;;5051247;28;20204;-65
2023/07/06 04:48:03;;;;;;;0.00;0.00;;;17.00;99.90;;;;;;5051426;28;20175;-65
2023/07/06 04:50:31;;;;;;;0.00;0.00;;;17.30;99.90;;;;;;5051027;28;20165;-65
2023/07/06 04:52:59;;;;;;;0.00;0.00;;;17.60;99.90;;;;;;5051247;28;20162;-65
2023/07/06 04:55:27;;;;;;;0.00;0.00;;;17.90;99.90;;;;;;5051015;28;20178;-64
2023/07/06 04:57:56;;;;;;;0.00;0.00;;;18.20;99.90;;;;;;5051276;28;20625;-64
2023/07/06 05:00:26;;;;;;;0.00;0.00;;;18.50;99.90;;;;;;5051121;28;20209;-64
2023/07/06 05:02:53;;;;;;;0.00;0.00;;;18.80;99.90;;;;;;5051514;28;20628;-65
2023/07/06 05:05:20;;;;;;;0.00;0.00;;;19.30;99.40;;;;;;5051352;28;20238;-64
2023/07/06 05:07:46;;;;;;;0.00;0.00;;;19.70;98.80;;;;;;5049760;28;20190;-65
2023/07/06 05:10:13;;;;;;;0.00;0.00;;;20.30;97.90;;;;;;5048865;28;20197;-65
2023/07/06 05:12:39;;;;;;;0.00;0.00;;;20.50;96.90;;;;;;5051120;28;20204;-67
2023/07/06 05:15:05;;;;;;;0.00;0.00;;;20.50;96.40;;;;;;5050129;28;20208;-65
2023/07/06 05:17:31;;;;;;;0.00;0.00;;;20.30;96.00;;;;;;5051239;28;20320;-65
2023/07/06 05:19:58;;;;;;;0.00;0.00;;;20.10;96.10;;;;;;5051079;28;20316;-64
2023/07/06 05:22:24;;;;;;;0.00;0.00;;;20.10;96.10;;;;;;5051164;28;20174;-64
2023/07/06 05:24:49;;;;;;;0.00;0.00;;;20.30;96.10;;;;;;5051339;28;20192;-64
2023/07/06 05:27:15;;;;;;;0.00;0.00;;;20.90;96.30;;;;;;5051030;28;20178;-64
2023/07/06 05:29:41;;;;;;;0.00;0.00;;;21.50;95.40;;;;;;5050962;28;20181;-64
2023/07/06 05:32:08;;;;;;;0.00;0.00;;;22.20;93.80;;;;;;5050966;28;20177;-64
2023/07/06 05:34:33;;;;;;;0.00;0.00;;;22.90;92.60;;;;;;5050780;28;20177;-65
2023/07/06 05:37:00;;;;;;;0.00;0.00;;;23.50;91.70;;;;;;5050774;28;20181;-64
2023/07/06 05:39:25;;;;;;;0.00;0.00;;;24.10;90.30;;;;;;5050679;28;20719;-65
2023/07/06 05:41:51;;;;;;;0.00;0.00;;;24.70;88.50;;;;;;5050796;28;20185;-65
2023/07/06 05:44:17;;;;;;;0.00;0.00;;;25.10;87.10;;;;;;5051016;28;20166;-64
2023/07/06 05:46:42;;;;;;;0.00;0.00;;;25.50;83.30;;;;;;5050816;28;20578;-65
2023/07/06 05:49:08;;;;;;;0.00;0.00;;;25.90;80.50;;;;;;5050876;28;20175;-65
2023/07/06 05:51:33;;;;;;;0.00;0.00;;;26.40;77.30;;;;;;5050895;28;20177;-65
2023/07/06 05:53:59;;;;;;;0.00;0.00;;;26.70;74.90;;;;;;5050833;28;20191;-65
2023/07/06 05:56:25;;;;;;;0.00;0.00;;;27.10;72.20;;;;;;5049561;28;20261;-65
2023/07/06 05:58:51;;;;;;;0.00;0.00;;;27.30;71.30;;;;;;5050595;28;20205;-65
2023/07/06 06:01:18;;;;;;;0.00;0.00;;;27.50;70.50;;;;;;5050696;28;20562;-65
2023/07/06 06:03:45;;;;;;;0.00;0.00;;;27.90;68.70;;;;;;5049449;28;20625;-65
2023/07/06 06:06:10;;;;;;;0.00;0.00;;;28.40;67.20;;;;;;5050573;28;20173;-65
2023/07/06 06:08:37;;;;;;;0.00;0.00;;;29.00;64.40;;;;;;5050649;28;20298;-65
2023/07/06 06:11:03;;;;;;;0.20;0.20;;;29.30;63.00;;;;;;5050529;28;20319;-65
2023/07/06 06:13:30;;;;;;;0.00;0.00;;;29.70;61.60;;;;;;5050828;28;20684;-65
2023/07/06 06:15:57;;;;;;;0.00;0.00;;;30.10;60.10;;;;;;5050613;28;20185;-65
2023/07/06 06:18:22;;;;;;;0.00;0.00;;;30.40;58.40;;;;;;5050480;28;20177;-65
2023/07/06 06:20:48;;;;;;;0.00;0.00;;;30.70;57.00;;;;;;5052048;28;20212;-65
2023/07/06 06:23:15;;;;;;;0.00;0.00;;;30.90;56.10;;;;;;5054489;28;20204;-65
2023/07/06 06:25:41;;;;;;;0.00;0.00;;;31.30;55.30;;;;;;5054366;28;20262;-65
2023/07/06 06:28:09;;;;;;;0.10;0.10;;;31.50;54.10;;;;;;5054292;28;20271;-65
2023/07/06 06:30:40;;;;;;;0.00;0.00;;;31.90;53.00;;;;;;5054386;28;20295;-66
2023/07/06 06:33:09;;;;;;;0.00;0.00;;;32.00;51.50;;;;;;5054841;28;20613;-65
2023/07/06 06:35:35;;;;;;;0.00;0.00;;;31.80;52.00;;;;;;5054268;28;20663;-65
2023/07/06 06:38:05;;;;;;;0.00;0.00;;;31.50;52.50;;;;;;5054168;28;20287;-65
2023/07/06 06:40:32;;;;;;;0.00;0.00;;;31.30;52.90;;;;;;5054337;28;20262;-65
2023/07/06 06:43:00;;;;;;;0.00;0.00;;;31.10;53.60;;;;;;5054294;28;20172;-65
2023/07/06 06:45:26;;;;;;;0.00;0.00;;;31.60;52.40;;;;;;5054073;28;20169;-65
2023/07/06 06:47:52;;;;;;;0.00;0.00;;;32.10;51.10;;;;;;5054209;28;20181;-65
2023/07/06 06:50:19;;;;;;;0.03;0.03;;;32.50;49.90;;;;;;5053948;28;20173;-65
2023/07/06 06:52:49;;;;;;;0.00;0.00;;;32.80;49.00;;;;;;5052964;28;20188;-65
2023/07/06 06:55:15;;;;;;;0.00;0.00;;;33.00;47.70;;;;;;5054008;28;20176;-65
2023/07/06 06:57:41;;;;;;;0.00;0.00;;;32.70;47.30;;;;;;5053746;28;20157;-65
2023/07/06 07:00:14;;;;;;;0.00;0.00;;;32.70;47.70;;;;;;5053923;28;20223;-65
2023/07/06 07:02:40;;;;;;;0.00;0.00;;;32.80;47.70;;;;;;5053822;28;20172;-65
2023/07/06 07:05:06;;;;;;;0.20;0.20;;;32.90;47.40;;;;;;5053921;28;20648;-66
2023/07/06 07:07:34;;;;;;;0.00;0.00;;;33.20;46.90;;;;;;5053906;28;20184;-65
2023/07/06 07:10:00;;;;;;;0.00;0.00;;;33.50;46.20;;;;;;5053502;28;20185;-65
2023/07/06 07:12:25;;;;;;;0.00;0.00;;;33.80;44.90;;;;;;5053792;28;20180;-65
2023/07/06 07:14:51;;;;;;;0.00;0.00;;;34.30;44.20;;;;;;5053800;28;20173;-65
2023/07/06 07:17:16;;;;;;;0.00;0.00;;;34.60;43.80;;;;;;5053608;28;20537;-65
2023/07/06 07:19:42;;;;;;;0.00;0.00;;;35.00;43.60;;;;;;5053438;28;20239;-65
2023/07/06 07:22:08;;;;;;;0.00;0.00;;;35.20;42.90;;;;;;5053608;28;20264;-65
2023/07/06 07:24:33;;;;;;;0.00;0.00;;;35.30;42.60;;;;;;5053458;28;20254;-65
2023/07/06 07:27:00;;;;;;;0.00;0.00;;;35.40;42.80;;;;;;5053101;28;20181;-65
2023/07/06 07:29:25;;;;;;;0.00;0.00;;;35.70;42.00;;;;;;5053306;28;20169;-65
2023/07/06 07:31:52;;;;;;;0.00;0.00;;;35.90;42.60;;;;;;5052411;28;20201;-66
2023/07/06 07:34:18;;;;;;;0.00;0.00;;;36.00;42.30;;;;;;5053116;28;20175;-65
2023/07/06 07:36:44;;;;;;;0.00;0.00;;;36.10;42.60;;;;;;5053438;28;20608;-65
2023/07/06 07:39:10;;;;;;;0.00;0.00;;;36.20;41.20;;;;;;5053161;28;20169;-65
2023/07/06 07:41:37;;;;;;;0.00;0.00;;;36.10;41.10;;;;;;5053195;28;20667;-65
2023/07/06 07:44:03;;;;;;;0.10;0.10;;;36.00;41.30;;;;;;5053114;28;20640;-65
2023/07/06 07:46:29;;;;;;;0.00;0.00;;;36.00;41.90;;;;;;5052976;28;20206;-65
2023/07/06 07:48:56;;;;;;;0.00;0.00;;;36.00;41.50;;;;;;5053067;28;20173;-65
2023/07/06 07:51:26;;;;;;;0.00;0.00;;;36.00;40.90;;;;;;5052780;28;20279;-65
2023/07/06 07:53:54;;;;;;;0.00;0.00;;;35.80;41.00;;;;;;5052865;28;20609;-65
2023/07/06 07:56:21;;;;;;;0.00;0.00;;;35.50;40.80;;;;;;5052713;28;20165;-65
2023/07/06 07:58:48;;;;;;;0.00;0.00;;;35.30;41.70;;;;;;5053028;28;20203;-65
2023/07/06 08:01:16;;;;;;;0.00;0.00;;;35.30;42.50;;;;;;5052776;28;20692;-63
2023/07/06 08:03:42;;;;;;;0.00;0.00;;;35.10;41.70;;;;;;5052629;28;20180;-63
2023/07/06 08:06:10;;;;;;;0.00;0.00;;;35.10;42.80;;;;;;5052878;28;20597;-63
2023/07/06 08:08:37;;;;;;;0.00;0.00;;;35.30;42.00;;;;;;5052544;28;20181;-62
2023/07/06 08:11:16;;;;;;;0.00;0.00;;;35.40;40.90;;;;;;5052464;28;20177;-63
2023/07/06 08:13:45;;;;;;;0.00;0.00;;;35.30;42.00;;;;;;5052350;28;20587;-63
2023/07/06 08:16:12;;;;;;;0.30;0.05;;;35.50;41.20;;;;;;5052544;28;20165;-63
2023/07/06 08:18:38;;;;;;;0.00;0.00;;;35.60;40.70;;;;;;5052312;28;20260;-62
2023/07/06 08:21:05;;;;;;;0.00;0.00;;;35.60;40.30;;;;;;5052434;28;20220;-62
2023/07/06 08:23:31;;;;;;;0.00;0.00;;;35.40;38.90;;;;;;5052223;28;20184;-63
2023/07/06 08:25:57;;;;;;;0.15;0.15;;;35.10;40.10;;;;;;5052443;28;20529;-62
2023/07/06 08:28:31;;;;;;;0.08;0.00;;;34.90;40.40;;;;;;5052015;28;20247;-62
2023/07/06 08:31:02;;;;;;;0.00;0.00;;;34.80;39.70;;;;;;5052207;28;20640;-62
2023/07/06 08:33:30;;;;;;;0.00;0.00;;;34.10;40.80;;;;;;5052122;28;20177;-62
2023/07/06 08:35:56;;;;;;;0.10;0.00;;;33.90;42.60;;;;;;5052041;28;20648;-62
2023/07/06 08:38:22;;;;;;;0.00;0.00;;;33.70;41.70;;;;;;5051853;28;20181;-62
2023/07/06 08:40:50;;;;;;;0.00;0.00;;;33.80;42.50;;;;;;5051899;28;20213;-62
2023/07/06 08:43:23;;;;;;;0.00;0.00;;;34.00;41.30;;;;;;5051785;28;20161;-62
2023/07/06 08:45:52;;;;;;;0.00;0.00;;;34.30;41.80;;;;;;5052051;28;20234;-62
2023/07/06 08:48:25;;;;;;;0.00;0.00;;;34.30;40.80;;;;;;5050576;28;20212;-62
2023/07/06 08:50:58;;;;;;;0.00;0.00;;;34.10;39.80;;;;;;5051931;28;20180;-62
2023/07/06 08:53:28;;;;;;;0.00;0.00;;;33.90;41.40;;;;;;5051724;28;20532;-62
2023/07/06 08:55:57;;;;;;;0.00;0.00;;;34.10;40.30;;;;;;5051794;28;20177;-62
2023/07/06 08:58:29;;;;;;;0.00;0.00;;;34.00;40.80;;;;;;5051702;28;20184;-62
2023/07/06 09:01:04;;;;;;;0.00;0.00;;;33.90;40.60;;;;;;5051613;28;20216;-62
2023/07/06 09:03:36;;;;;;;0.10;0.10;;;33.70;40.40;;;;;;5051499;28;20172;-62
2023/07/06 09:06:01;;;;;;;0.00;0.00;;;33.70;42.40;;;;;;5051540;28;20263;-62
2023/07/06 09:08:28;;;;;;;0.00;0.00;;;33.70;41.40;;;;;;5051458;28;20573;-62
2023/07/06 09:10:53;;;;;;;0.00;0.00;;;33.20;41.10;;;;;;5051369;28;20541;-62
2023/07/06 09:13:25;;;;;;;0.00;0.00;;;33.00;40.60;;;;;;5050054;28;20173;-62
2023/07/06 09:15:56;;;;;;;0.00;0.00;;;32.60;41.80;;;;;;5050193;28;20184;-62
2023/07/06 09:18:22;;;;;;;0.00;0.00;;;31.90;41.70;;;;;;5051304;28;20166;-62
2023/07/06 09:20:50;;;;;;;0.00;0.00;;;31.50;43.40;;;;;;5051305;28;20228;-62
2023/07/06 09:23:17;;;;;;;0.00;0.00;;;31.50;44.10;;;;;;5051271;28;20200;-63
2023/07/06 09:25:44;;;;;;;0.00;0.00;;;31.60;44.20;;;;;;5051122;28;20181;-62
2023/07/06 09:28:29;;;;;;;0.00;0.00;;;32.00;43.70;;;;;;5050988;28;20271;-62
2023/07/06 09:31:21;;;;;;;0.00;0.00;;;32.30;43.40;;;;;;5051314;28;20170;-62
2023/07/06 09:33:49;;;;;;;0.00;0.00;;;32.30;43.30;;;;;;5051341;28;20205;-62
2023/07/06 09:36:19;;;;;;;0.00;0.00;;;32.50;43.50;;;;;;5050988;28;20178;-62
2023/07/06 09:38:46;;;;;;;0.00;0.00;;;32.70;42.70;;;;;;5050962;28;20170;-62
2023/07/06 09:41:22;;;;;;;0.00;0.00;;;33.00;41.80;;;;;;5050987;28;20703;-62
2023/07/06 09:43:53;;;;;;;0.08;0.08;;;33.30;41.60;;;;;;5051069;28;20195;-62
2023/07/06 09:46:19;;;;;;;0.00;0.00;;;32.90;41.00;;;;;;5050810;28;20267;-62
2023/07/06 09:48:44;;;;;;;0.00;0.00;;;33.00;41.50;;;;;;5051224;28;20177;-62
2023/07/06 09:51:24;;;;;;;0.00;0.00;;;32.60;41.20;;;;;;5050956;28;20799;-62
2023/07/06 09:53:53;;;;;;;0.00;0.00;;;32.50;42.90;;;;;;5051000;28;20181;-62
2023/07/06 09:56:18;;;;;;;0.00;0.00;;;32.50;42.00;;;;;;5050207;28;20169;-63
2023/07/06 09:58:46;;;;;;;0.00;0.00;;;31.90;43.30;;;;;;5049642;28;20188;-62
2023/07/06 10:01:14;;;;;;;0.00;0.00;;;31.50;41.90;;;;;;5050828;28;20213;-62
2023/07/06 10:04:07;;;;;;;0.00;0.00;;;31.10;42.40;;;;;;5050700;28;20165;-62
2023/07/06 10:07:18;;;;;;;0.00;0.00;;;31.10;43.40;;;;;;5050750;28;20199;-62
2023/07/06 10:09:48;;;;;;;0.00;0.00;;;31.40;43.90;;;;;;5050785;28;20200;-62
2023/07/06 10:12:29;;;;;;;0.00;0.00;;;31.80;43.70;;;;;;5050569;28;20176;-62
2023/07/06 10:14:54;;;;;;;0.00;0.00;;;32.20;43.80;;;;;;5050662;28;20169;-62
2023/07/06 10:17:37;;;;;;;0.00;0.00;;;32.00;40.60;;;;;;5050428;28;20178;-62
2023/07/06 10:20:23;;;;;;;0.00;0.00;;;31.90;41.60;;;;;;5050564;28;20224;-62
2023/07/06 10:23:11;;;;;;;0.00;0.00;;;32.00;41.50;;;;;;5050613;28;20621;-62
2023/07/06 10:25:42;;;;;;;0.00;0.00;;;32.10;41.50;;;;;;5050597;28;20178;-62
2023/07/06 10:28:16;;;;;;;0.00;0.00;;;32.30;40.90;;;;;;5050524;28;20225;-62
2023/07/06 10:30:45;;;;;;;1.67;1.55;;;32.70;39.90;;;;;;5050462;28;20173;-62
2023/07/06 10:33:22;;;;;;;0.00;0.00;;;33.00;40.60;;;;;;5050429;28;20661;-62
2023/07/06 10:35:50;;;;;;;0.00;0.00;;;33.30;40.60;;;;;;5050588;28;20528;-62
2023/07/06 10:38:16;;;;;;;0.00;0.00;;;33.60;41.10;;;;;;5050560;28;20200;-62
2023/07/06 10:40:49;;;;;;;0.00;0.00;;;33.70;38.30;;;;;;5050228;28;20220;-62
2023/07/06 10:43:14;;;;;;;0.00;0.00;;;33.60;39.10;;;;;;5050420;28;20180;-62
2023/07/06 10:45:51;;;;;;;0.00;0.00;;;33.60;39.90;;;;;;5050159;28;20524;-63
2023/07/06 10:48:34;;;;;;;0.00;0.00;;;33.30;39.60;;;;;;5050222;28;20671;-62
2023/07/06 10:51:23;;;;;;;0.00;0.00;;;33.00;38.30;;;;;;5050217;28;20173;-63
2023/07/06 10:54:07;;;;;;;0.00;0.00;;;32.70;38.20;;;;;;5050356;28;20217;-61
2023/07/06 10:56:39;;;;;;;0.00;0.00;;;32.50;38.70;;;;;;5050272;28;20252;-62
2023/07/06 10:59:14;;;;;;;0.00;0.00;;;32.10;39.10;;;;;;5050295;28;20173;-62
2023/07/06 11:01:46;;;;;;;0.03;0.03;;;32.30;41.70;;;;;;5050189;28;20523;-64
2023/07/06 11:04:50;;;;;;;0.00;0.00;;;32.20;38.80;;;;;;5050149;28;20235;-63
2023/07/06 11:07:53;;;;;;;0.00;0.00;;;32.20;38.10;;;;;;5050251;28;20193;-64
2023/07/06 11:10:31;;;;;;;0.00;0.00;;;32.00;39.80;;;;;;5030986;28;20173;-64
2023/07/06 11:13:05;;;;;;;0.00;0.00;;;31.60;38.80;;;;;;5051178;28;20289;-63
2023/07/06 11:15:43;;;;;;;0.00;0.00;;;31.60;39.10;;;;;;5053471;28;20243;-63
2023/07/06 11:18:21;;;;;;;0.00;0.00;;;31.50;39.10;;;;;;5053546;28;20183;-63
2023/07/06 11:20:56;;;;;;;0.20;0.20;;;31.40;39.60;;;;;;5053511;28;20216;-63
2023/07/06 11:23:41;;;;;;;0.00;0.00;;;31.50;40.00;;;;;;5053511;28;20177;-63
2023/07/06 11:26:15;;;;;;;0.00;0.00;;;31.10;40.50;;;;;;5053592;28;20515;-64
2023/07/06 11:28:43;;;;;;;0.00;0.00;;;31.00;40.80;;;;;;5053061;28;20233;-63
2023/07/06 11:31:34;;;;;;;0.00;0.00;;;30.80;39.20;;;;;;5053462;28;20162;-64
2023/07/06 11:34:13;;;;;;;0.10;0.00;;;30.80;40.90;;;;;;5052235;28;20157;-63
2023/07/06 11:37:12;;;;;;;0.00;0.00;;;31.00;39.80;;;;;;5053071;28;20173;-64
2023/07/06 11:39:49;;;;;;;0.00;0.00;;;31.30;40.80;;;;;;5050936;28;20217;-64
2023/07/06 11:42:26;;;;;;;0.00;0.00;;;30.80;39.00;;;;;;5053158;28;20579;-63
2023/07/06 11:44:54;;;;;;;0.00;0.00;;;30.60;40.20;;;;;;5053181;28;20207;-63
2023/07/06 11:47:44;;;;;;;0.00;0.00;;;30.90;39.20;;;;;;5053003;28;20189;-65
2023/07/06 11:50:14;;;;;;;0.00;0.00;;;30.90;39.00;;;;;;5053090;28;20176;-64
2023/07/06 11:52:58;;;;;;;0.00;0.00;;;31.00;38.30;;;;;;5052806;28;20599;-64
2023/07/06 11:55:39;;;;;;;0.00;0.00;;;31.30;38.40;;;;;;5053010;28;20170;-64
2023/07/06 11:58:28;;;;;;;0.00;0.00;;;31.70;37.60;;;;;;5052943;28;20181;-64
2023/07/06 12:00:58;;;;;;;0.00;0.00;;;32.00;37.60;;;;;;5052315;28;20300;-64
2023/07/06 12:03:26;;;;;;;0.00;0.00;;;31.40;36.60;;;;;;5052704;28;20659;-63
2023/07/06 12:05:55;;;;;;;0.00;0.00;;;31.00;36.50;;;;;;5052779;28;20264;-63
2023/07/06 12:08:35;;;;;;;0.00;0.00;;;30.60;37.60;;;;;;5052576;28;20176;-64
2023/07/06 12:11:05;;;;;;;0.00;0.00;;;30.50;39.00;;;;;;5052480;28;20177;-64
2023/07/06 12:13:34;;;;;;;0.00;0.00;;;30.30;39.30;;;;;;5052170;28;20276;-64
2023/07/06 12:16:27;;;;;;;0.00;0.00;;;30.40;38.60;;;;;;5052407;28;20189;-63
2023/07/06 12:19:13;;;;;;;0.00;0.00;;;30.50;38.70;;;;;;5050948;28;20247;-63
2023/07/06 12:21:50;;;;;;;0.00;0.00;;;30.60;38.40;;;;;;5051180;28;20189;-63
2023/07/06 12:24:23;;;;;;;0.00;0.00;;;30.70;38.10;;;;;;5052359;28;20187;-63
2023/07/06 12:27:01;;;;;;;0.00;0.00;;;30.70;38.00;;;;;;5052240;28;20187;-63
2023/07/06 12:29:31;;;;;;;0.00;0.00;;;30.70;38.00;;;;;;5052256;28;20208;-64
2023/07/06 12:32:15;;;;;;;0.00;0.00;;;30.30;37.10;;;;;;5052380;28;20173;-64
2023/07/06 12:34:44;;;;;;;0.00;0.00;;;30.20;39.90;;;;;;5052067;28;20805;-63
2023/07/06 12:37:11;;;;;;;0.00;0.00;;;30.40;39.40;;;;;;5052219;28;20226;-63
2023/07/06 12:39:41;;;;;;;0.00;0.00;;;30.00;38.20;;;;;;5051873;28;20240;-64
2023/07/06 12:42:10;;;;;;;0.00;0.00;;;29.90;39.00;;;;;;5050880;28;20242;-63
2023/07/06 12:44:37;;;;;;;0.00;0.00;;;29.50;39.10;;;;;;5052010;28;20204;-63
2023/07/06 12:47:20;;;;;;;0.00;0.00;;;29.50;40.10;;;;;;5052008;28;20176;-63
2023/07/06 12:49:47;;;;;;;0.00;0.00;;;29.60;39.00;;;;;;5051905;28;20173;-63
2023/07/06 12:52:13;;;;;;;0.00;0.00;;;29.90;39.80;;;;;;5051884;28;20219;-64
2023/07/06 12:54:52;;;;;;;0.00;0.00;;;29.90;39.00;;;;;;5051516;28;20268;-64
2023/07/06 12:57:24;;;;;;;0.00;0.00;;;30.10;39.40;;;;;;5051493;28;20169;-64
2023/07/06 12:59:54;;;;;;;0.00;0.00;;;30.50;37.90;;;;;;5051475;28;20552;-64
2023/07/06 13:02:22;;;;;;;0.00;0.00;;;30.60;39.10;;;;;;5051894;28;20189;-64
2023/07/06 13:04:49;;;;;;;0.13;0.13;;;30.40;37.60;;;;;;5051637;28;20177;-64